Time;durP1;ratioP1;P1;durP2;ratioP2;P2;SDS_P1;SDS_P2;PMS_P1;PMS_P2;Temp;Humidity;BMP_temperature;BMP_pressure;BME280_temperature;BME280_humidity;BME280_pressure;Samples;Min_cycle;Max_cycle;Signal;HPM_P1;HPM_P2
2021/12/17 00:04:49;;;;;;;117.65;42.75;;;8.30;99.90;;;;;;4980841;28;20081;-75
2021/12/17 00:07:17;;;;;;;107.93;39.70;;;8.30;99.90;;;;;;4976499;28;20225;-75
2021/12/17 00:09:45;;;;;;;81.85;34.63;;;8.20;99.90;;;;;;4966912;28;20078;-75
2021/12/17 00:12:15;;;;;;;91.10;37.15;;;8.20;99.90;;;;;;4960169;28;20108;-75
2021/12/17 00:14:46;;;;;;;76.65;34.78;;;8.10;99.90;;;;;;4958363;28;20054;-75
2021/12/17 00:17:18;;;;;;;59.05;28.25;;;8.10;99.90;;;;;;4970637;28;20046;-75
2021/12/17 00:53:21;;;;;;;87.20;36.17;;;8.10;99.90;;;;;;4936977;28;20069;-75
2021/12/17 00:55:48;;;;;;;64.65;28.52;;;8.20;99.90;;;;;;4964331;28;20119;-75
2021/12/17 00:58:16;;;;;;;62.17;28.38;;;8.20;99.90;;;;;;4976667;28;20076;-75
2021/12/17 01:00:43;;;;;;;60.25;29.48;;;8.10;99.90;;;;;;4994338;28;20038;-76
2021/12/17 01:03:10;;;;;;;67.10;29.83;;;8.10;99.90;;;;;;4997936;28;20053;-76
2021/12/17 01:05:38;;;;;;;64.55;29.60;;;8.10;99.90;;;;;;4999511;28;20042;-75
2021/12/17 01:08:06;;;;;;;74.88;33.22;;;8.10;99.90;;;;;;4998998;28;20065;-76
2021/12/17 01:10:41;;;;;;;91.03;35.80;;;8.10;99.90;;;;;;4998154;28;20143;-76
2021/12/17 01:13:28;;;;;;;106.57;40.13;;;8.10;99.90;;;;;;4999147;28;20056;-75
2021/12/17 01:16:01;;;;;;;118.97;41.20;;;8.10;99.90;;;;;;4996665;28;20497;-75
2021/12/17 01:18:55;;;;;;;105.50;38.80;;;8.20;99.90;;;;;;4998538;28;20615;-75
2021/12/17 01:21:35;;;;;;;128.00;44.03;;;8.10;99.90;;;;;;5004915;28;20069;-76
2021/12/17 01:36:30;;;;;;;139.10;45.03;;;8.10;99.90;;;;;;4993290;28;20059;-74
2021/12/17 01:42:01;;;;;;;172.18;50.97;;;8.00;99.90;;;;;;5000460;28;20054;-74
2021/12/17 01:44:28;;;;;;;152.85;47.83;;;8.00;99.90;;;;;;5000511;28;20053;-74
2021/12/17 01:46:56;;;;;;;147.80;46.17;;;7.90;99.90;;;;;;5003886;28;20037;-74
2021/12/17 02:00:28;;;;;;;150.82;45.92;;;7.60;99.90;;;;;;4998594;28;20046;-75
2021/12/17 02:02:58;;;;;;;182.48;49.25;;;7.50;99.90;;;;;;5014266;28;20077;-74
2021/12/17 02:05:32;;;;;;;143.63;43.47;;;7.50;99.90;;;;;;4998317;28;20129;-74
2021/12/17 02:08:00;;;;;;;144.55;42.95;;;7.30;99.90;;;;;;4985579;28;20146;-74
2021/12/17 02:11:05;;;;;;;154.00;46.45;;;7.20;99.90;;;;;;4975529;28;20101;-74
2021/12/17 02:32:27;;;;;;;148.77;43.50;;;7.30;99.90;;;;;;4966078;28;20087;-74
2021/12/17 02:37:43;;;;;;;179.13;46.25;;;7.30;99.90;;;;;;4978353;28;20372;-74
2021/12/17 02:42:33;;;;;;;146.40;43.85;;;7.30;99.90;;;;;;4981635;28;20136;-74
2021/12/17 02:46:51;;;;;;;166.05;44.97;;;7.40;99.90;;;;;;4978932;28;20450;-75
2021/12/17 02:49:18;;;;;;;235.45;55.08;;;7.40;99.90;;;;;;4976653;28;20042;-74
2021/12/17 02:51:47;;;;;;;244.88;53.25;;;7.40;99.90;;;;;;4974802;28;20095;-74
2021/12/17 02:54:15;;;;;;;343.23;56.72;;;7.40;99.90;;;;;;4961793;28;20121;-74
2021/12/17 02:56:42;;;;;;;387.75;59.83;;;7.30;99.90;;;;;;4977662;28;20050;-74
2021/12/17 02:59:13;;;;;;;313.75;53.33;;;7.30;99.90;;;;;;4973796;28;20053;-74
2021/12/17 03:01:44;;;;;;;302.80;55.03;;;7.40;99.90;;;;;;4979492;28;20057;-75
2021/12/17 03:04:13;;;;;;;309.92;52.10;;;7.50;99.90;;;;;;4978283;28;20155;-75
2021/12/17 03:06:41;;;;;;;305.40;49.03;;;7.50;99.90;;;;;;4987525;28;20495;-75
2021/12/17 03:09:09;;;;;;;381.05;56.80;;;7.60;99.90;;;;;;4977545;28;20107;-75
2021/12/17 03:11:35;;;;;;;360.33;57.53;;;7.60;99.90;;;;;;4961411;28;20054;-74
2021/12/17 03:14:02;;;;;;;410.33;54.45;;;7.60;99.90;;;;;;4977516;28;20042;-74
2021/12/17 03:16:41;;;;;;;412.83;57.63;;;7.70;99.90;;;;;;4959964;28;20086;-75
2021/12/17 03:19:26;;;;;;;447.08;59.85;;;7.80;99.90;;;;;;4980412;28;20667;-75
2021/12/17 03:24:38;;;;;;;446.38;63.42;;;7.70;99.90;;;;;;4988892;28;20056;-76
2021/12/17 03:27:05;;;;;;;477.55;63.97;;;7.80;99.90;;;;;;4984276;28;20057;-74
2021/12/17 03:29:36;;;;;;;409.95;65.80;;;7.80;99.90;;;;;;4978298;28;20676;-74
2021/12/17 03:32:05;;;;;;;347.85;54.38;;;7.80;99.90;;;;;;4977321;28;20050;-74
2021/12/17 03:34:32;;;;;;;392.58;59.85;;;7.80;99.90;;;;;;4977781;28;20050;-74
2021/12/17 03:36:59;;;;;;;417.45;62.75;;;7.80;99.90;;;;;;4989100;28;20054;-74
2021/12/17 03:39:33;;;;;;;372.33;53.88;;;7.90;99.90;;;;;;4977720;28;20137;-75
2021/12/17 03:42:03;;;;;;;518.38;64.80;;;7.90;99.90;;;;;;4979723;28;20085;-76
2021/12/17 03:44:34;;;;;;;639.97;70.23;;;7.90;99.90;;;;;;4976344;28;20046;-75
2021/12/17 03:47:03;;;;;;;579.97;70.05;;;7.80;99.90;;;;;;4979343;28;20328;-76
2021/12/17 03:49:43;;;;;;;535.50;69.07;;;7.90;99.90;;;;;;4978059;28;20051;-75
2021/12/17 03:52:10;;;;;;;613.75;74.97;;;7.90;99.90;;;;;;4978113;28;20050;-75
2021/12/17 03:54:40;;;;;;;693.80;80.47;;;7.90;99.90;;;;;;4975469;28;20050;-75
2021/12/17 03:57:11;;;;;;;769.10;90.82;;;7.80;99.90;;;;;;4961118;28;20085;-76
2021/12/17 03:59:44;;;;;;;639.15;75.47;;;7.80;99.90;;;;;;4959126;28;20116;-75
2021/12/17 04:02:12;;;;;;;635.03;81.57;;;7.80;99.90;;;;;;4957236;28;20504;-75
2021/12/17 04:04:40;;;;;;;512.30;67.95;;;7.90;99.90;;;;;;4974496;28;20073;-75
2021/12/17 04:07:25;;;;;;;;;;;7.90;99.90;;;;;;4977587;28;20115;-76
2021/12/17 04:10:12;;;;;;;431.05;66.95;;;7.90;99.90;;;;;;4978492;28;19925;-76
2021/12/17 04:15:16;;;;;;;487.77;72.18;;;7.90;99.90;;;;;;4977213;28;20050;-75
2021/12/17 04:17:47;;;;;;;479.50;67.32;;;8.00;99.90;;;;;;4977173;28;20058;-74
2021/12/17 04:20:15;;;;;;;456.50;67.60;;;7.90;99.90;;;;;;4983881;28;20289;-74
2021/12/17 04:22:42;;;;;;;652.78;87.32;;;7.80;99.90;;;;;;4963203;28;20068;-74
2021/12/17 04:25:09;;;;;;;474.20;67.70;;;7.80;99.90;;;;;;5003794;22;20065;-77
2021/12/17 04:27:37;;;;;;;483.85;75.30;;;7.90;99.90;;;;;;4964307;28;20355;-77
2021/12/17 04:30:04;;;;;;;457.55;74.15;;;7.90;99.90;;;;;;4971146;28;20075;-77
2021/12/17 04:32:31;;;;;;;470.05;73.85;;;7.90;99.90;;;;;;4962699;28;20073;-78
2021/12/17 04:34:59;;;;;;;536.40;80.43;;;7.80;99.90;;;;;;4958656;28;20092;-77
2021/12/17 04:37:35;;;;;;;467.92;76.55;;;7.80;99.90;;;;;;4955415;28;20039;-76
2021/12/17 04:40:03;;;;;;;485.55;78.38;;;7.80;99.90;;;;;;4977251;28;20038;-76
2021/12/17 04:45:07;;;;;;;361.45;69.38;;;7.80;99.90;;;;;;4976438;28;20139;-76
2021/12/17 04:58:53;;;;;;;213.50;55.20;;;7.60;99.90;;;;;;4977707;28;20057;-77
2021/12/17 05:01:21;;;;;;;189.98;51.00;;;7.60;99.90;;;;;;4981645;28;20501;-76
2021/12/17 05:03:49;;;;;;;179.10;48.47;;;7.70;99.90;;;;;;4967441;28;20303;-76
2021/12/17 05:06:18;;;;;;;176.73;47.85;;;7.60;99.90;;;;;;4961584;28;20258;-77
2021/12/17 05:09:04;;;;;;;176.50;47.70;;;7.70;99.90;;;;;;4967965;28;20051;-76
2021/12/17 05:18:14;;;;;;;156.82;45.15;;;7.60;99.90;;;;;;4968336;28;20323;-79
2021/12/17 05:19:58;;;;;;;246.40;55.28;;;7.60;99.90;;;;;;4979473;28;19926;-77
2021/12/17 05:22:27;;;;;;;267.13;55.75;;;7.60;99.90;;;;;;4985602;28;20111;-77
2021/12/17 05:24:54;;;;;;;300.90;59.33;;;7.70;99.90;;;;;;4969857;28;20042;-76
2021/12/17 05:27:22;;;;;;;221.88;50.60;;;7.70;99.90;;;;;;4979752;28;20074;-76
2021/12/17 05:29:54;;;;;;;205.05;48.75;;;7.60;99.90;;;;;;4965505;28;20119;-76
2021/12/17 05:32:22;;;;;;;273.80;52.92;;;7.60;99.90;;;;;;4978581;28;20046;-76
2021/12/17 05:34:53;;;;;;;244.65;52.03;;;7.70;99.90;;;;;;4969537;28;20057;-77
2021/12/17 05:37:20;;;;;;;248.35;50.40;;;7.60;99.90;;;;;;4982791;28;20077;-76
2021/12/17 05:39:47;;;;;;;275.85;51.85;;;7.60;99.90;;;;;;4980701;28;20062;-77
2021/12/17 05:42:14;;;;;;;245.95;47.42;;;7.50;99.90;;;;;;4969567;28;20050;-76
2021/12/17 05:44:52;;;;;;;200.50;45.53;;;7.60;99.90;;;;;;4986819;28;20133;-77
2021/12/17 05:47:19;;;;;;;235.95;48.70;;;7.60;99.90;;;;;;4981400;28;20042;-76
2021/12/17 05:49:46;;;;;;;164.77;40.28;;;7.60;99.90;;;;;;4983908;28;20054;-77
2021/12/17 05:52:13;;;;;;;203.18;41.60;;;7.60;99.90;;;;;;4967337;28;20054;-77
2021/12/17 05:54:40;;;;;;;190.05;39.15;;;7.70;99.90;;;;;;4983646;28;20057;-77
2021/12/17 05:57:07;;;;;;;166.70;38.55;;;7.70;99.90;;;;;;4963526;28;20057;-77
2021/12/17 05:59:36;;;;;;;177.38;37.05;;;7.70;99.90;;;;;;4967719;28;20058;-77
2021/12/17 06:02:10;;;;;;;219.63;40.92;;;7.70;99.90;;;;;;4967123;28;20857;-77
2021/12/17 06:04:42;;;;;;;265.88;42.58;;;7.70;99.90;;;;;;4982269;28;20046;-77
2021/12/17 06:07:08;;;;;;;384.35;53.10;;;7.60;99.90;;;;;;4993615;28;20328;-77
2021/12/17 06:09:39;;;;;;;420.27;56.10;;;7.50;99.90;;;;;;5008006;28;20061;-77
2021/12/17 06:12:11;;;;;;;566.95;63.05;;;7.50;99.90;;;;;;4966079;28;20055;-76
2021/12/17 06:14:39;;;;;;;450.42;53.20;;;7.50;99.90;;;;;;4963627;28;21427;-77
2021/12/17 06:17:06;;;;;;;522.85;63.28;;;7.50;99.90;;;;;;4977493;28;20417;-77
2021/12/17 06:19:39;;;;;;;535.17;60.53;;;7.60;99.90;;;;;;4964692;28;20050;-77
2021/12/17 06:22:06;;;;;;;476.88;59.00;;;7.60;99.90;;;;;;4980424;28;20050;-76
2021/12/17 06:24:35;;;;;;;442.98;54.22;;;7.60;99.90;;;;;;4982131;28;20038;-77
2021/12/17 06:27:02;;;;;;;450.90;55.40;;;7.60;99.90;;;;;;4983234;28;20149;-76
2021/12/17 06:29:29;;;;;;;494.83;61.88;;;7.60;99.90;;;;;;4968009;28;20321;-77
2021/12/17 06:32:05;;;;;;;341.33;45.70;;;7.60;99.90;;;;;;4986512;28;20042;-76
2021/12/17 06:34:32;;;;;;;400.30;49.40;;;7.50;99.90;;;;;;4971564;28;20050;-76
2021/12/17 06:37:00;;;;;;;319.92;47.55;;;7.50;99.90;;;;;;4996307;28;20049;-77
2021/12/17 06:39:27;;;;;;;200.65;36.72;;;7.50;99.90;;;;;;4984881;28;20573;-76
2021/12/17 06:41:54;;;;;;;216.13;37.58;;;7.50;99.90;;;;;;4979365;28;20143;-76
2021/12/17 06:44:24;;;;;;;260.10;39.47;;;7.50;99.90;;;;;;4979092;28;20054;-76
2021/12/17 06:56:15;;;;;;;122.63;26.85;;;7.50;99.90;;;;;;4978301;28;20574;-77
2021/12/17 06:59:06;;;;;;;159.13;32.70;;;7.50;99.90;;;;;;4978857;28;20038;-76
2021/12/17 07:22:46;;;;;;;49.75;17.25;;;7.50;99.90;;;;;;4959297;28;20062;-77
2021/12/17 07:32:11;;;;;;;91.80;21.67;;;7.50;99.90;;;;;;4960454;28;20047;-77
2021/12/17 07:34:08;;;;;;;96.72;23.25;;;7.50;99.90;;;;;;4961606;28;20126;-77
2021/12/17 07:36:45;;;;;;;77.15;21.52;;;7.50;99.90;;;;;;4989625;28;20046;-78
2021/12/17 07:39:16;;;;;;;93.93;23.05;;;7.50;99.90;;;;;;4969605;28;20046;-77
2021/12/17 07:41:45;;;;;;;67.47;18.90;;;7.50;99.90;;;;;;4983587;28;20065;-77
2021/12/17 07:44:38;;;;;;;72.68;21.25;;;7.60;99.90;;;;;;4967240;28;20042;-76
2021/12/17 07:47:23;;;;;;;62.08;16.98;;;7.50;99.90;;;;;;4979250;28;20073;-77
2021/12/17 07:50:20;;;;;;;67.97;17.50;;;7.50;99.90;;;;;;4970684;28;20054;-78
2021/12/17 07:53:06;;;;;;;63.90;18.20;;;7.50;99.90;;;;;;4980051;28;20524;-77
2021/12/17 07:55:42;;;;;;;69.45;17.63;;;7.50;99.90;;;;;;4978977;28;20057;-77
2021/12/17 07:58:13;;;;;;;63.13;19.27;;;7.50;99.90;;;;;;4976780;28;20054;-77
2021/12/17 08:00:41;;;;;;;64.50;22.00;;;7.50;99.90;;;;;;4978454;28;20054;-77
2021/12/17 08:03:10;;;;;;;67.80;21.02;;;7.60;99.90;;;;;;4978290;28;20080;-77
2021/12/17 08:05:50;;;;;;;58.10;16.80;;;7.60;99.90;;;;;;4970829;28;20408;-77
2021/12/17 08:08:18;;;;;;;66.70;18.52;;;7.60;99.90;;;;;;4978224;28;20046;-78
2021/12/17 08:10:55;;;;;;;54.15;15.65;;;7.50;99.90;;;;;;4978712;28;20518;-77
2021/12/17 08:13:25;;;;;;;42.05;15.20;;;7.50;99.90;;;;;;4962178;28;20053;-77
2021/12/17 08:24:43;;;;;;;63.72;22.15;;;7.70;99.90;;;;;;4979139;28;20099;-77
2021/12/17 08:29:42;;;;;;;65.57;21.05;;;7.70;99.90;;;;;;4979720;28;20066;-78
2021/12/17 08:32:10;;;;;;;42.67;16.77;;;7.80;99.90;;;;;;4963468;28;20173;-77
2021/12/17 08:35:00;;;;;;;37.90;14.43;;;7.90;99.90;;;;;;4988585;28;20050;-78
2021/12/17 08:37:28;;;;;;;39.45;14.02;;;8.00;99.90;;;;;;4978928;28;20111;-77
2021/12/17 08:39:57;;;;;;;39.20;14.75;;;7.90;99.90;;;;;;4980144;28;20046;-78
2021/12/17 08:42:33;;;;;;;48.33;14.52;;;8.00;99.90;;;;;;4965392;28;20047;-78
2021/12/17 08:45:04;;;;;;;36.25;12.20;;;8.00;99.90;;;;;;4966309;28;20039;-78
2021/12/17 08:47:51;;;;;;;41.97;14.48;;;7.90;99.90;;;;;;4986738;28;20046;-78
2021/12/17 08:50:29;;;;;;;37.85;14.88;;;8.10;99.90;;;;;;4982442;28;20050;-78
2021/12/17 08:52:57;;;;;;;41.45;13.95;;;8.10;99.90;;;;;;4980713;28;20046;-78
2021/12/17 08:55:24;;;;;;;59.83;23.30;;;8.10;99.90;;;;;;4961051;28;20306;-78
2021/12/17 08:57:52;;;;;;;38.75;14.63;;;8.00;99.90;;;;;;4967167;28;20050;-78
2021/12/17 09:00:19;;;;;;;20.33;8.82;;;7.90;99.90;;;;;;4962749;28;20070;-78
2021/12/17 09:02:59;;;;;;;19.98;7.60;;;7.90;99.90;;;;;;4965792;28;20152;-78
2021/12/17 09:05:51;;;;;;;16.48;6.50;;;7.80;99.90;;;;;;4973945;28;20066;-77
2021/12/17 09:08:24;;;;;;;19.25;8.95;;;7.80;99.90;;;;;;5006190;28;20126;-77
2021/12/17 09:10:58;;;;;;;19.13;6.97;;;7.80;99.90;;;;;;4979182;28;20122;-77
2021/12/17 09:13:39;;;;;;;9.60;4.70;;;7.80;99.90;;;;;;4979276;28;20404;-77
2021/12/17 09:16:08;;;;;;;10.20;4.60;;;7.80;99.90;;;;;;4977217;28;20125;-77
2021/12/17 09:18:37;;;;;;;8.82;3.88;;;7.80;99.90;;;;;;4976475;28;20039;-78
2021/12/17 09:21:17;;;;;;;9.13;3.25;;;7.80;99.90;;;;;;4975746;28;20054;-77
2021/12/17 09:23:57;;;;;;;11.68;3.65;;;7.70;99.90;;;;;;4978193;28;20051;-78
2021/12/17 09:26:27;;;;;;;7.20;3.30;;;7.80;99.90;;;;;;4956952;28;20051;-77
2021/12/17 09:28:54;;;;;;;6.70;2.70;;;7.80;99.90;;;;;;4974087;28;20328;-77
2021/12/17 09:31:22;;;;;;;3.45;2.17;;;7.70;99.90;;;;;;4958923;28;20057;-77
2021/12/17 09:33:49;;;;;;;5.93;2.03;;;7.70;99.90;;;;;;4960459;28;20688;-78
2021/12/17 09:36:20;;;;;;;5.65;2.25;;;7.60;99.90;;;;;;4981508;28;20050;-78
2021/12/17 09:38:52;;;;;;;3.95;2.25;;;7.60;99.90;;;;;;4974724;28;20058;-77
2021/12/17 09:41:23;;;;;;;5.03;2.50;;;7.60;99.90;;;;;;4979710;28;20039;-77
2021/12/17 09:43:50;;;;;;;5.70;2.80;;;7.50;99.90;;;;;;4982071;28;20043;-78
2021/12/17 09:46:17;;;;;;;5.55;3.25;;;7.50;99.90;;;;;;4979482;28;20585;-77
2021/12/17 09:48:47;;;;;;;7.13;3.95;;;7.50;99.90;;;;;;4976368;28;20254;-77
2021/12/17 09:51:16;;;;;;;4.05;2.50;;;7.60;99.90;;;;;;4977716;28;20058;-78
2021/12/17 09:53:43;;;;;;;3.28;1.17;;;7.60;99.90;;;;;;4978915;28;20398;-78
2021/12/17 09:56:10;;;;;;;1.67;0.57;;;7.40;99.90;;;;;;4978475;28;20398;-75
2021/12/17 09:58:37;;;;;;;1.80;0.63;;;7.50;99.90;;;;;;4976893;28;20050;-75
2021/12/17 10:01:04;;;;;;;3.95;1.60;;;7.40;99.90;;;;;;4978673;28;20054;-74
2021/12/17 10:03:31;;;;;;;2.15;0.90;;;7.50;99.90;;;;;;4979129;28;20073;-74
2021/12/17 10:05:58;;;;;;;3.35;1.27;;;7.50;99.90;;;;;;4989568;28;20103;-76
2021/12/17 10:08:25;;;;;;;3.55;1.55;;;7.50;99.90;;;;;;4978714;28;20054;-75
2021/12/17 10:10:59;;;;;;;4.43;2.28;;;7.50;99.90;;;;;;4979791;28;20514;-74
2021/12/17 10:13:34;;;;;;;3.65;2.13;;;7.40;99.90;;;;;;4962367;28;20589;-74
2021/12/17 10:16:08;;;;;;;4.03;2.30;;;7.50;99.90;;;;;;4977886;28;20082;-76
2021/12/17 10:18:38;;;;;;;3.08;1.30;;;7.60;99.90;;;;;;4971720;28;20123;-75
2021/12/17 10:21:08;;;;;;;3.33;1.65;;;7.60;99.90;;;;;;4961993;28;20794;-74
2021/12/17 10:23:36;;;;;;;2.65;0.80;;;7.40;99.90;;;;;;4979709;28;20066;-74
2021/12/17 10:26:04;;;;;;;4.20;1.58;;;7.40;99.90;;;;;;5038016;22;20644;-71
2021/12/17 10:28:30;;;;;;;2.75;1.50;;;7.40;99.90;;;;;;4992549;28;20062;-72
2021/12/17 10:30:57;;;;;;;4.22;1.67;;;7.30;99.90;;;;;;5013601;28;20087;-72
2021/12/17 10:33:28;;;;;;;4.05;1.75;;;7.30;99.90;;;;;;4998276;28;20042;-71
2021/12/17 10:36:00;;;;;;;3.35;1.52;;;7.40;99.90;;;;;;4994921;28;20058;-72
2021/12/17 10:38:27;;;;;;;3.70;1.67;;;7.50;99.90;;;;;;4978002;28;20054;-72
2021/12/17 10:41:08;;;;;;;3.78;1.85;;;7.50;99.90;;;;;;4979773;28;20046;-71
2021/12/17 10:43:39;;;;;;;3.35;1.73;;;7.50;99.90;;;;;;4977604;28;20599;-73
2021/12/17 10:46:12;;;;;;;4.47;2.13;;;7.60;99.90;;;;;;4978121;28;20050;-72
2021/12/17 10:52:06;;;;;;;12.07;3.67;;;7.60;99.90;;;;;;4979412;28;20054;-73
2021/12/17 10:54:11;;;;;;;4.82;2.38;;;7.70;99.90;;;;;;4981370;28;20084;-71
2021/12/17 10:56:43;;;;;;;4.18;1.90;;;7.70;99.90;;;;;;4990483;28;20058;-73
2021/12/17 10:59:12;;;;;;;4.15;2.78;;;7.60;99.90;;;;;;4978761;28;20050;-72
2021/12/17 11:01:44;;;;;;;5.00;2.50;;;7.50;99.90;;;;;;4978961;28;20050;-71
2021/12/17 11:04:14;;;;;;;6.53;3.03;;;7.50;99.90;;;;;;4978135;28;20104;-70
2021/12/17 11:07:05;;;;;;;6.07;3.45;;;7.40;99.90;;;;;;4987864;28;20050;-73
2021/12/17 11:09:34;;;;;;;5.32;2.65;;;7.40;99.90;;;;;;4990871;28;20354;-71
2021/12/17 11:12:39;;;;;;;9.13;4.95;;;7.30;99.90;;;;;;4979176;28;20046;-71
2021/12/17 11:15:25;;;;;;;11.30;5.28;;;7.30;99.90;;;;;;4979057;28;20082;-73
2021/12/17 11:17:55;;;;;;;9.35;6.07;;;7.30;99.90;;;;;;4974646;28;20470;-71
2021/12/17 11:20:24;;;;;;;11.23;5.50;;;7.40;99.90;;;;;;4981998;28;20062;-71
2021/12/17 11:22:54;;;;;;;11.40;6.22;;;7.30;99.90;;;;;;4979958;28;20134;-71
2021/12/17 11:25:22;;;;;;;11.93;6.30;;;7.20;99.90;;;;;;4976222;28;21508;-71
2021/12/17 11:27:51;;;;;;;14.05;7.00;;;7.30;99.90;;;;;;4976806;28;20078;-72
2021/12/17 11:30:21;;;;;;;12.93;6.13;;;7.10;99.90;;;;;;4972398;28;20494;-72
2021/12/17 11:32:49;;;;;;;11.70;5.97;;;7.10;99.90;;;;;;4959702;28;20080;-71
2021/12/17 11:35:23;;;;;;;13.98;6.85;;;7.10;99.90;;;;;;4973628;28;20056;-71
2021/12/17 11:37:52;;;;;;;12.63;5.15;;;7.20;99.90;;;;;;4976616;28;20132;-71
2021/12/17 11:40:30;;;;;;;12.75;6.32;;;7.20;99.90;;;;;;4975659;28;20598;-71
2021/12/17 11:43:15;;;;;;;15.30;6.40;;;7.10;99.90;;;;;;4995120;28;20054;-72
2021/12/17 11:45:57;;;;;;;13.20;6.00;;;7.20;99.90;;;;;;4977762;28;20111;-71
2021/12/17 11:48:26;;;;;;;14.18;6.38;;;7.10;99.90;;;;;;4977485;28;20666;-71
2021/12/17 11:51:23;;;;;;;13.48;5.88;;;7.00;99.90;;;;;;4978136;28;20141;-71
2021/12/17 11:54:04;;;;;;;12.93;5.70;;;7.10;99.90;;;;;;4980334;28;20046;-71
2021/12/17 11:56:34;;;;;;;9.80;6.20;;;7.10;99.90;;;;;;4974408;28;20100;-71
2021/12/17 11:59:03;;;;;;;15.20;6.13;;;7.10;99.90;;;;;;4990840;28;20115;-71
2021/12/17 12:02:01;;;;;;;10.95;5.35;;;7.10;99.90;;;;;;4975246;28;20112;-72
2021/12/17 12:04:34;;;;;;;13.20;6.93;;;7.10;99.90;;;;;;4974784;28;20046;-72
2021/12/17 12:07:00;;;;;;;15.32;7.00;;;7.10;99.90;;;;;;4984078;28;20074;-71
2021/12/17 12:09:58;;;;;;;16.30;5.97;;;7.20;99.90;;;;;;4957637;28;20127;-71
2021/12/17 12:12:31;;;;;;;13.18;6.15;;;7.20;99.90;;;;;;4957160;28;20047;-71
2021/12/17 12:15:17;;;;;;;12.77;5.40;;;7.20;99.90;;;;;;4957711;28;20124;-71
2021/12/17 12:18:08;;;;;;;13.98;6.25;;;7.20;99.90;;;;;;4988731;28;20046;-72
2021/12/17 12:20:48;;;;;;;12.05;5.47;;;7.00;99.90;;;;;;4972034;28;20077;-71
2021/12/17 12:23:18;;;;;;;10.57;5.40;;;7.00;99.90;;;;;;4972096;28;20085;-71
2021/12/17 12:26:08;;;;;;;14.02;5.85;;;7.10;99.90;;;;;;4964114;28;20046;-71
2021/12/17 12:28:44;;;;;;;14.27;6.28;;;7.20;99.90;;;;;;4979745;28;20572;-72
2021/12/17 12:31:22;;;;;;;11.70;6.57;;;7.10;99.90;;;;;;4975511;28;20043;-72
2021/12/17 12:36:47;;;;;;;16.23;6.93;;;7.00;99.90;;;;;;4986597;28;20157;-71
2021/12/17 12:39:13;;;;;;;;;;;7.10;99.90;;;;;;4975642;28;20829;-72
2021/12/17 12:41:45;;;;;;;14.80;6.57;;;7.00;99.90;;;;;;4968134;28;20605;-71
2021/12/17 12:44:12;;;;;;;15.18;6.47;;;7.10;99.90;;;;;;4976065;28;20665;-73
2021/12/17 12:47:12;;;;;;;14.68;8.43;;;7.10;99.90;;;;;;4974436;28;20233;-71
2021/12/17 12:49:43;;;;;;;16.58;7.63;;;7.20;99.90;;;;;;4981986;28;20046;-71
2021/12/17 12:52:36;;;;;;;15.00;7.53;;;7.30;99.90;;;;;;4975544;28;20442;-71
2021/12/17 12:55:03;;;;;;;14.93;7.65;;;7.20;99.90;;;;;;4975001;28;20086;-71
2021/12/17 12:57:35;;;;;;;15.48;6.72;;;7.30;99.90;;;;;;4975840;28;20745;-72
2021/12/17 13:00:09;;;;;;;13.63;7.53;;;7.30;99.90;;;;;;4976448;28;20054;-71
2021/12/17 13:02:36;;;;;;;13.95;6.95;;;7.30;99.90;;;;;;4976793;28;20128;-72
2021/12/17 13:05:06;;;;;;;14.65;6.25;;;7.30;99.90;;;;;;4990595;28;20054;-71
2021/12/17 13:07:44;;;;;;;13.32;6.57;;;7.20;99.90;;;;;;4970489;28;20046;-71
2021/12/17 13:10:14;;;;;;;14.70;7.20;;;7.10;99.90;;;;;;4970691;28;20206;-72
2021/12/17 13:12:46;;;;;;;16.30;6.03;;;7.00;99.90;;;;;;4984111;28;20077;-72
2021/12/17 13:15:20;;;;;;;12.95;7.03;;;7.10;99.90;;;;;;4986783;28;20062;-71
2021/12/17 13:21:04;;;;;;;13.90;6.93;;;7.20;99.90;;;;;;4973186;28;20479;-74
2021/12/17 13:23:37;;;;;;;17.58;8.82;;;7.20;99.90;;;;;;4979165;28;20440;-74
2021/12/17 13:26:10;;;;;;;16.35;7.93;;;7.20;99.90;;;;;;4977150;28;20046;-73
2021/12/17 13:29:05;;;;;;;17.75;8.75;;;7.30;99.90;;;;;;4981937;28;20053;-74
2021/12/17 13:31:51;;;;;;;15.97;8.17;;;7.40;99.90;;;;;;4979856;28;20074;-74
2021/12/17 13:34:34;;;;;;;16.85;8.95;;;7.30;99.90;;;;;;4960597;28;20150;-74
2021/12/17 13:37:10;;;;;;;19.60;8.05;;;7.30;99.90;;;;;;4988369;28;20054;-74
2021/12/17 13:40:00;;;;;;;17.35;8.07;;;7.20;99.90;;;;;;4980790;28;20058;-74
2021/12/17 13:42:42;;;;;;;17.50;8.30;;;7.20;99.90;;;;;;4979474;28;20635;-74
2021/12/17 13:45:12;;;;;;;15.05;7.68;;;7.20;99.90;;;;;;4976313;28;20057;-75
2021/12/17 13:47:47;;;;;;;20.42;10.30;;;7.20;99.90;;;;;;4977481;28;20066;-75
2021/12/17 13:50:25;;;;;;;18.77;9.95;;;7.20;99.90;;;;;;4978774;28;20054;-75
2021/12/17 13:53:10;;;;;;;17.92;10.38;;;7.30;99.90;;;;;;4980311;28;20345;-75
2021/12/17 13:55:57;;;;;;;20.13;8.90;;;7.40;99.90;;;;;;4979020;28;20050;-75
2021/12/17 13:58:25;;;;;;;21.48;10.93;;;7.30;99.90;;;;;;4978524;28;20327;-75
2021/12/17 14:00:57;;;;;;;21.42;10.63;;;7.30;99.90;;;;;;5003998;28;20054;-75
2021/12/17 14:03:32;;;;;;;20.63;11.75;;;7.20;99.90;;;;;;4979483;28;20078;-74
2021/12/17 14:06:18;;;;;;;27.30;13.32;;;7.10;99.90;;;;;;4985220;28;20091;-75
2021/12/17 14:08:45;;;;;;;26.40;13.95;;;7.20;99.90;;;;;;5063658;28;20139;-75
2021/12/17 14:11:29;;;;;;;27.00;14.35;;;7.30;99.90;;;;;;5059836;28;20054;-75
2021/12/17 14:14:27;;;;;;;18.00;10.18;;;7.30;99.90;;;;;;4959004;28;20051;-75
2021/12/17 14:17:03;;;;;;;20.33;11.32;;;7.20;99.90;;;;;;4970097;28;20042;-75
2021/12/17 14:19:42;;;;;;;19.00;10.38;;;7.30;99.90;;;;;;4980581;28;20047;-75
2021/12/17 14:22:27;;;;;;;23.27;12.85;;;7.40;99.90;;;;;;4972804;28;20133;-75
2021/12/17 14:24:55;;;;;;;;;;;7.40;99.90;;;;;;4976125;28;20039;-75
2021/12/17 14:27:22;;;;;;;21.38;11.27;;;7.30;99.90;;;;;;4979342;28;19925;-75
2021/12/17 14:30:04;;;;;;;19.65;11.60;;;7.30;99.90;;;;;;4980553;28;20541;-76
2021/12/17 14:32:30;;;;;;;22.58;11.88;;;7.30;99.90;;;;;;4979243;28;20054;-75
2021/12/17 14:34:57;;;;;;;17.85;10.40;;;7.30;99.90;;;;;;4988382;28;20060;-75
2021/12/17 14:37:24;;;;;;;22.17;11.40;;;7.30;99.90;;;;;;4981908;28;20597;-75
2021/12/17 14:39:54;;;;;;;19.08;9.73;;;7.20;99.90;;;;;;4979471;28;20043;-75
2021/12/17 14:42:33;;;;;;;19.52;10.77;;;7.10;99.90;;;;;;4975691;28;20142;-75
2021/12/17 14:45:04;;;;;;;23.65;10.95;;;7.20;99.90;;;;;;4961383;28;20092;-75
2021/12/17 14:47:49;;;;;;;20.08;10.77;;;7.20;99.90;;;;;;4974731;28;20050;-75
2021/12/17 15:00:15;;;;;;;22.00;11.75;;;6.90;99.90;;;;;;4979244;28;20587;-75
2021/12/17 15:02:27;;;;;;;26.80;16.35;;;6.90;99.90;;;;;;4976621;28;20050;-75
2021/12/17 15:04:54;;;;;;;21.33;10.98;;;6.90;99.90;;;;;;4999332;28;20471;-75
2021/12/17 15:07:23;;;;;;;20.42;9.82;;;7.00;99.90;;;;;;4983219;28;20081;-74
2021/12/17 15:09:50;;;;;;;20.90;9.65;;;6.90;99.90;;;;;;4980174;28;20480;-75
2021/12/17 15:15:02;;;;;;;17.45;10.35;;;7.00;99.90;;;;;;4979656;28;20191;-75
2021/12/17 15:17:29;;;;;;;20.80;11.68;;;7.00;99.90;;;;;;4979619;28;20060;-75
2021/12/17 15:20:20;;;;;;;18.33;10.50;;;6.90;99.90;;;;;;4975915;28;20065;-76
2021/12/17 15:22:48;;;;;;;20.42;11.73;;;6.90;99.90;;;;;;4978701;28;20123;-75
2021/12/17 15:25:16;;;;;;;20.60;11.18;;;6.80;99.90;;;;;;4979754;28;20526;-75
2021/12/17 15:27:44;;;;;;;21.33;10.98;;;6.80;99.90;;;;;;4978969;28;20111;-75
2021/12/17 15:30:17;;;;;;;20.17;11.52;;;6.70;99.90;;;;;;4978965;28;20050;-75
2021/12/17 15:32:45;;;;;;;25.40;13.15;;;6.70;99.90;;;;;;4977965;28;20092;-75
2021/12/17 15:35:14;;;;;;;19.90;11.75;;;6.80;99.90;;;;;;4975577;28;20044;-75
2021/12/17 15:37:41;;;;;;;26.30;12.00;;;6.60;99.90;;;;;;4979156;28;20107;-76
2021/12/17 15:40:11;;;;;;;22.58;13.35;;;6.60;99.90;;;;;;4978252;28;20054;-75
2021/12/17 15:42:38;;;;;;;28.67;14.52;;;6.50;99.90;;;;;;4980195;28;20135;-75
2021/12/17 15:45:06;;;;;;;30.65;15.27;;;6.50;99.90;;;;;;4977450;28;20053;-76
2021/12/17 15:47:34;;;;;;;23.88;13.10;;;6.50;99.90;;;;;;4979335;28;20476;-75
2021/12/17 15:50:01;;;;;;;35.00;17.77;;;6.50;99.90;;;;;;4979105;28;20138;-73
2021/12/17 15:52:29;;;;;;;33.58;17.83;;;6.60;99.90;;;;;;4979134;28;20361;-73
2021/12/17 15:54:56;;;;;;;34.50;18.20;;;6.60;99.90;;;;;;4978472;28;20081;-75
2021/12/17 15:57:23;;;;;;;34.08;17.13;;;6.60;99.90;;;;;;4976166;28;20623;-72
2021/12/17 15:59:50;;;;;;;35.45;18.45;;;6.60;99.90;;;;;;4974075;28;20141;-73
2021/12/17 16:02:16;;;;;;;39.17;18.92;;;6.60;99.90;;;;;;4960077;28;20062;-74
2021/12/17 16:04:46;;;;;;;37.78;20.80;;;6.60;99.90;;;;;;4975966;28;20096;-73
2021/12/17 16:07:14;;;;;;;29.38;16.77;;;6.60;99.90;;;;;;4975389;28;20175;-75
2021/12/17 16:23:40;;;;;;;35.58;19.50;;;6.50;99.90;;;;;;4977328;28;20074;-72
2021/12/17 16:26:08;;;;;;;45.42;23.52;;;6.50;99.90;;;;;;5022323;23;20090;-76